sensor_id;sensor_type;location;lat;lon;timestamp;P1;durP1;ratioP1;P2;durP2;ratioP2
37409;SDS011;23275;48.914;12.566;2022-12-29T00:02:12;11.38;;;4.55;;
37409;SDS011;23275;48.914;12.566;2022-12-29T00:04:38;7.43;;;4.47;;
37409;SDS011;23275;48.914;12.566;2022-12-29T00:07:04;7.82;;;4.80;;
37409;SDS011;23275;48.914;12.566;2022-12-29T00:09:30;8.82;;;4.50;;
37409;SDS011;23275;48.914;12.566;2022-12-29T00:11:57;14.23;;;4.90;;
37409;SDS011;23275;48.914;12.566;2022-12-29T00:14:22;8.60;;;4.75;;
37409;SDS011;23275;48.914;12.566;2022-12-29T00:17:06;6.15;;;4.20;;
37409;SDS011;23275;48.914;12.566;2022-12-29T00:19:32;7.78;;;4.25;;
37409;SDS011;23275;48.914;12.566;2022-12-29T00:22:16;7.80;;;4.05;;
37409;SDS011;23275;48.914;12.566;2022-12-29T00:25:01;10.43;;;4.65;;
37409;SDS011;23275;48.914;12.566;2022-12-29T00:27:30;10.20;;;4.32;;
37409;SDS011;23275;48.914;12.566;2022-12-29T00:30:17;8.35;;;5.10;;
37409;SDS011;23275;48.914;12.566;2022-12-29T00:33:15;7.60;;;4.45;;
37409;SDS011;23275;48.914;12.566;2022-12-29T00:36:28;10.02;;;4.70;;
37409;SDS011;23275;48.914;12.566;2022-12-29T00:38:59;7.20;;;4.30;;
37409;SDS011;23275;48.914;12.566;2022-12-29T00:41:50;8.38;;;4.32;;
37409;SDS011;23275;48.914;12.566;2022-12-29T00:44:34;7.35;;;4.07;;
37409;SDS011;23275;48.914;12.566;2022-12-29T00:47:00;8.95;;;4.78;;
37409;SDS011;23275;48.914;12.566;2022-12-29T00:49:29;9.75;;;4.70;;
37409;SDS011;23275;48.914;12.566;2022-12-29T00:52:03;9.35;;;4.45;;
37409;SDS011;23275;48.914;12.566;2022-12-29T00:54:31;9.15;;;4.40;;
37409;SDS011;23275;48.914;12.566;2022-12-29T00:56:58;8.77;;;4.05;;
37409;SDS011;23275;48.914;12.566;2022-12-29T00:59:24;9.60;;;4.70;;
37409;SDS011;23275;48.914;12.566;2022-12-29T01:01:50;8.75;;;4.53;;
37409;SDS011;23275;48.914;12.566;2022-12-29T01:04:17;7.78;;;4.47;;
37409;SDS011;23275;48.914;12.566;2022-12-29T01:06:44;10.00;;;4.30;;
37409;SDS011;23275;48.914;12.566;2022-12-29T01:09:10;7.22;;;4.40;;
37409;SDS011;23275;48.914;12.566;2022-12-29T01:11:54;6.90;;;3.95;;
37409;SDS011;23275;48.914;12.566;2022-12-29T01:14:21;7.72;;;4.57;;
37409;SDS011;23275;48.914;12.566;2022-12-29T01:16:47;5.88;;;3.97;;
37409;SDS011;23275;48.914;12.566;2022-12-29T01:19:13;7.78;;;4.28;;
37409;SDS011;23275;48.914;12.566;2022-12-29T01:21:40;7.82;;;4.38;;
37409;SDS011;23275;48.914;12.566;2022-12-29T01:24:05;8.15;;;4.47;;
37409;SDS011;23275;48.914;12.566;2022-12-29T01:26:31;10.98;;;4.47;;
37409;SDS011;23275;48.914;12.566;2022-12-29T01:28:57;9.38;;;4.50;;
37409;SDS011;23275;48.914;12.566;2022-12-29T01:31:22;7.70;;;4.15;;
37409;SDS011;23275;48.914;12.566;2022-12-29T01:33:48;7.85;;;4.75;;
37409;SDS011;23275;48.914;12.566;2022-12-29T01:36:14;8.40;;;3.97;;
37409;SDS011;23275;48.914;12.566;2022-12-29T01:38:41;10.70;;;4.82;;
37409;SDS011;23275;48.914;12.566;2022-12-29T01:41:07;8.05;;;4.55;;
37409;SDS011;23275;48.914;12.566;2022-12-29T01:43:47;9.38;;;4.53;;
37409;SDS011;23275;48.914;12.566;2022-12-29T01:48:57;7.78;;;4.43;;
37409;SDS011;23275;48.914;12.566;2022-12-29T01:51:35;6.55;;;3.72;;
37409;SDS011;23275;48.914;12.566;2022-12-29T01:54:11;8.52;;;4.07;;
37409;SDS011;23275;48.914;12.566;2022-12-29T01:56:47;7.53;;;4.32;;
37409;SDS011;23275;48.914;12.566;2022-12-29T01:59:18;8.75;;;4.30;;
37409;SDS011;23275;48.914;12.566;2022-12-29T02:01:47;7.72;;;4.32;;
37409;SDS011;23275;48.914;12.566;2022-12-29T02:04:13;8.77;;;4.10;;
37409;SDS011;23275;48.914;12.566;2022-12-29T02:06:47;6.22;;;4.03;;
37409;SDS011;23275;48.914;12.566;2022-12-29T02:09:16;7.55;;;4.47;;
37409;SDS011;23275;48.914;12.566;2022-12-29T02:11:42;8.57;;;4.35;;
37409;SDS011;23275;48.914;12.566;2022-12-29T02:14:09;7.15;;;4.15;;
37409;SDS011;23275;48.914;12.566;2022-12-29T02:16:39;8.35;;;4.47;;
37409;SDS011;23275;48.914;12.566;2022-12-29T02:31:51;8.23;;;4.60;;
37409;SDS011;23275;48.914;12.566;2022-12-29T02:34:47;8.15;;;3.90;;
37409;SDS011;23275;48.914;12.566;2022-12-29T02:37:42;7.43;;;4.00;;
37409;SDS011;23275;48.914;12.566;2022-12-29T02:40:22;8.27;;;4.15;;
37409;SDS011;23275;48.914;12.566;2022-12-29T02:43:04;7.93;;;4.28;;
37409;SDS011;23275;48.914;12.566;2022-12-29T02:45:47;6.80;;;3.80;;
37409;SDS011;23275;48.914;12.566;2022-12-29T02:48:24;10.45;;;4.32;;
37409;SDS011;23275;48.914;12.566;2022-12-29T02:50:59;6.45;;;3.92;;
37409;SDS011;23275;48.914;12.566;2022-12-29T02:53:27;7.22;;;4.13;;
37409;SDS011;23275;48.914;12.566;2022-12-29T02:56:13;8.18;;;4.43;;
37409;SDS011;23275;48.914;12.566;2022-12-29T02:58:39;7.70;;;3.97;;
37409;SDS011;23275;48.914;12.566;2022-12-29T03:06:17;6.85;;;3.88;;
37409;SDS011;23275;48.914;12.566;2022-12-29T03:11:55;7.05;;;4.00;;
37409;SDS011;23275;48.914;12.566;2022-12-29T03:14:33;8.00;;;3.95;;
37409;SDS011;23275;48.914;12.566;2022-12-29T03:20:49;6.28;;;3.90;;
37409;SDS011;23275;48.914;12.566;2022-12-29T03:23:19;8.02;;;3.60;;
37409;SDS011;23275;48.914;12.566;2022-12-29T03:25:47;7.57;;;3.83;;
37409;SDS011;23275;48.914;12.566;2022-12-29T03:28:23;7.63;;;4.28;;
37409;SDS011;23275;48.914;12.566;2022-12-29T03:30:54;7.40;;;3.97;;
37409;SDS011;23275;48.914;12.566;2022-12-29T03:33:23;7.45;;;3.80;;
37409;SDS011;23275;48.914;12.566;2022-12-29T03:35:52;7.20;;;3.88;;
37409;SDS011;23275;48.914;12.566;2022-12-29T03:41:00;10.32;;;4.03;;
37409;SDS011;23275;48.914;12.566;2022-12-29T03:43:29;6.77;;;4.03;;
37409;SDS011;23275;48.914;12.566;2022-12-29T03:45:55;7.28;;;3.92;;
37409;SDS011;23275;48.914;12.566;2022-12-29T03:48:21;11.10;;;3.90;;
37409;SDS011;23275;48.914;12.566;2022-12-29T03:50:46;7.80;;;3.50;;
37409;SDS011;23275;48.914;12.566;2022-12-29T03:53:12;7.13;;;3.75;;
37409;SDS011;23275;48.914;12.566;2022-12-29T03:55:37;6.22;;;3.58;;
37409;SDS011;23275;48.914;12.566;2022-12-29T03:58:03;6.20;;;3.85;;
37409;SDS011;23275;48.914;12.566;2022-12-29T04:00:29;6.25;;;3.40;;
37409;SDS011;23275;48.914;12.566;2022-12-29T04:02:54;5.50;;;3.25;;
37409;SDS011;23275;48.914;12.566;2022-12-29T04:05:20;8.18;;;4.22;;
37409;SDS011;23275;48.914;12.566;2022-12-29T04:07:45;6.75;;;3.95;;
37409;SDS011;23275;48.914;12.566;2022-12-29T04:10:11;6.93;;;3.95;;
37409;SDS011;23275;48.914;12.566;2022-12-29T04:12:37;6.03;;;3.47;;
37409;SDS011;23275;48.914;12.566;2022-12-29T04:15:02;7.47;;;3.42;;
37409;SDS011;23275;48.914;12.566;2022-12-29T04:17:28;6.15;;;3.60;;
37409;SDS011;23275;48.914;12.566;2022-12-29T04:19:54;7.53;;;3.90;;
37409;SDS011;23275;48.914;12.566;2022-12-29T04:22:39;6.57;;;3.33;;
37409;SDS011;23275;48.914;12.566;2022-12-29T04:25:05;8.50;;;3.85;;
37409;SDS011;23275;48.914;12.566;2022-12-29T04:27:31;7.50;;;3.60;;
37409;SDS011;23275;48.914;12.566;2022-12-29T04:29:56;7.05;;;2.75;;
37409;SDS011;23275;48.914;12.566;2022-12-29T04:32:22;6.05;;;3.45;;
37409;SDS011;23275;48.914;12.566;2022-12-29T04:34:48;7.10;;;3.33;;
37409;SDS011;23275;48.914;12.566;2022-12-29T04:37:13;8.80;;;3.75;;
37409;SDS011;23275;48.914;12.566;2022-12-29T04:39:39;6.13;;;3.20;;
37409;SDS011;23275;48.914;12.566;2022-12-29T04:42:04;5.95;;;3.10;;
37409;SDS011;23275;48.914;12.566;2022-12-29T04:44:30;5.88;;;3.35;;
37409;SDS011;23275;48.914;12.566;2022-12-29T04:46:55;6.45;;;3.05;;
37409;SDS011;23275;48.914;12.566;2022-12-29T04:49:21;6.38;;;3.55;;
37409;SDS011;23275;48.914;12.566;2022-12-29T04:51:46;6.55;;;3.10;;
37409;SDS011;23275;48.914;12.566;2022-12-29T04:54:12;6.00;;;3.83;;
37409;SDS011;23275;48.914;12.566;2022-12-29T04:56:37;5.57;;;3.08;;
37409;SDS011;23275;48.914;12.566;2022-12-29T04:59:03;7.38;;;3.38;;
37409;SDS011;23275;48.914;12.566;2022-12-29T05:01:29;5.65;;;3.20;;
37409;SDS011;23275;48.914;12.566;2022-12-29T05:03:55;6.07;;;2.95;;
37409;SDS011;23275;48.914;12.566;2022-12-29T05:06:21;5.50;;;3.10;;
37409;SDS011;23275;48.914;12.566;2022-12-29T05:08:46;5.38;;;2.92;;
37409;SDS011;23275;48.914;12.566;2022-12-29T05:11:12;7.80;;;3.00;;
37409;SDS011;23275;48.914;12.566;2022-12-29T05:13:37;5.72;;;3.10;;
37409;SDS011;23275;48.914;12.566;2022-12-29T05:16:03;4.95;;;3.10;;
37409;SDS011;23275;48.914;12.566;2022-12-29T05:18:29;7.40;;;3.40;;
37409;SDS011;23275;48.914;12.566;2022-12-29T05:20:54;5.78;;;2.80;;
37409;SDS011;23275;48.914;12.566;2022-12-29T05:23:20;8.68;;;2.88;;
37409;SDS011;23275;48.914;12.566;2022-12-29T05:25:45;10.77;;;2.92;;
37409;SDS011;23275;48.914;12.566;2022-12-29T05:28:11;5.93;;;3.00;;
37409;SDS011;23275;48.914;12.566;2022-12-29T05:30:38;6.15;;;2.78;;
37409;SDS011;23275;48.914;12.566;2022-12-29T05:33:03;6.75;;;2.80;;
37409;SDS011;23275;48.914;12.566;2022-12-29T05:35:31;4.15;;;2.70;;
37409;SDS011;23275;48.914;12.566;2022-12-29T05:37:57;4.90;;;2.60;;
37409;SDS011;23275;48.914;12.566;2022-12-29T05:40:23;4.95;;;3.05;;
37409;SDS011;23275;48.914;12.566;2022-12-29T05:42:49;5.53;;;2.83;;
37409;SDS011;23275;48.914;12.566;2022-12-29T05:45:14;5.82;;;3.00;;
37409;SDS011;23275;48.914;12.566;2022-12-29T05:47:40;7.28;;;3.40;;
37409;SDS011;23275;48.914;12.566;2022-12-29T05:50:05;6.03;;;2.63;;
37409;SDS011;23275;48.914;12.566;2022-12-29T05:52:31;5.00;;;3.20;;
37409;SDS011;23275;48.914;12.566;2022-12-29T05:54:57;5.13;;;2.70;;
37409;SDS011;23275;48.914;12.566;2022-12-29T05:57:22;7.55;;;3.15;;
37409;SDS011;23275;48.914;12.566;2022-12-29T05:59:48;5.78;;;3.20;;
37409;SDS011;23275;48.914;12.566;2022-12-29T06:02:13;5.22;;;2.88;;
37409;SDS011;23275;48.914;12.566;2022-12-29T06:04:39;5.03;;;2.40;;
37409;SDS011;23275;48.914;12.566;2022-12-29T06:07:04;5.60;;;2.75;;
37409;SDS011;23275;48.914;12.566;2022-12-29T06:09:30;5.25;;;2.45;;
37409;SDS011;23275;48.914;12.566;2022-12-29T06:11:55;8.27;;;3.45;;
37409;SDS011;23275;48.914;12.566;2022-12-29T06:14:21;4.80;;;2.65;;
37409;SDS011;23275;48.914;12.566;2022-12-29T06:16:46;5.05;;;2.92;;
37409;SDS011;23275;48.914;12.566;2022-12-29T06:19:12;6.43;;;2.90;;
37409;SDS011;23275;48.914;12.566;2022-12-29T06:21:37;4.97;;;2.95;;
37409;SDS011;23275;48.914;12.566;2022-12-29T06:24:04;6.13;;;3.53;;
37409;SDS011;23275;48.914;12.566;2022-12-29T06:26:29;5.80;;;3.03;;
37409;SDS011;23275;48.914;12.566;2022-12-29T06:28:55;4.60;;;2.58;;
37409;SDS011;23275;48.914;12.566;2022-12-29T06:31:21;6.57;;;3.20;;
37409;SDS011;23275;48.914;12.566;2022-12-29T06:33:46;5.60;;;2.55;;
37409;SDS011;23275;48.914;12.566;2022-12-29T06:36:12;6.28;;;3.20;;
37409;SDS011;23275;48.914;12.566;2022-12-29T06:38:38;4.80;;;2.97;;
37409;SDS011;23275;48.914;12.566;2022-12-29T06:41:03;6.18;;;2.83;;
37409;SDS011;23275;48.914;12.566;2022-12-29T06:43:29;6.63;;;3.20;;
37409;SDS011;23275;48.914;12.566;2022-12-29T06:45:55;5.13;;;2.70;;
37409;SDS011;23275;48.914;12.566;2022-12-29T06:48:21;5.10;;;2.63;;
37409;SDS011;23275;48.914;12.566;2022-12-29T06:50:46;4.88;;;2.95;;
37409;SDS011;23275;48.914;12.566;2022-12-29T06:53:12;7.03;;;2.95;;
37409;SDS011;23275;48.914;12.566;2022-12-29T06:55:37;5.20;;;2.45;;
37409;SDS011;23275;48.914;12.566;2022-12-29T06:58:03;4.63;;;2.67;;
37409;SDS011;23275;48.914;12.566;2022-12-29T07:00:29;5.50;;;3.13;;
37409;SDS011;23275;48.914;12.566;2022-12-29T07:02:55;8.30;;;3.83;;
37409;SDS011;23275;48.914;12.566;2022-12-29T07:05:22;6.38;;;3.33;;
37409;SDS011;23275;48.914;12.566;2022-12-29T07:07:49;5.10;;;3.05;;
37409;SDS011;23275;48.914;12.566;2022-12-29T07:10:15;5.65;;;2.40;;
37409;SDS011;23275;48.914;12.566;2022-12-29T07:12:40;5.45;;;2.50;;
37409;SDS011;23275;48.914;12.566;2022-12-29T07:15:06;5.22;;;2.60;;
37409;SDS011;23275;48.914;12.566;2022-12-29T07:17:32;5.18;;;2.58;;
37409;SDS011;23275;48.914;12.566;2022-12-29T07:19:58;5.05;;;2.33;;
37409;SDS011;23275;48.914;12.566;2022-12-29T07:22:23;4.68;;;2.45;;
37409;SDS011;23275;48.914;12.566;2022-12-29T07:24:49;4.78;;;2.90;;
37409;SDS011;23275;48.914;12.566;2022-12-29T07:27:14;7.20;;;2.67;;
37409;SDS011;23275;48.914;12.566;2022-12-29T07:29:40;4.25;;;2.40;;
37409;SDS011;23275;48.914;12.566;2022-12-29T07:32:05;4.63;;;2.80;;
37409;SDS011;23275;48.914;12.566;2022-12-29T07:34:31;6.45;;;2.55;;
37409;SDS011;23275;48.914;12.566;2022-12-29T07:36:57;5.47;;;2.63;;
37409;SDS011;23275;48.914;12.566;2022-12-29T07:39:22;5.40;;;2.80;;
37409;SDS011;23275;48.914;12.566;2022-12-29T07:41:48;5.07;;;2.80;;
37409;SDS011;23275;48.914;12.566;2022-12-29T07:44:13;4.70;;;2.47;;
37409;SDS011;23275;48.914;12.566;2022-12-29T07:46:39;6.40;;;2.63;;
37409;SDS011;23275;48.914;12.566;2022-12-29T07:49:04;7.57;;;2.83;;
37409;SDS011;23275;48.914;12.566;2022-12-29T07:51:30;4.43;;;2.35;;
37409;SDS011;23275;48.914;12.566;2022-12-29T07:53:56;7.85;;;2.75;;
37409;SDS011;23275;48.914;12.566;2022-12-29T07:56:24;3.97;;;2.15;;
37409;SDS011;23275;48.914;12.566;2022-12-29T07:58:49;5.07;;;2.40;;
37409;SDS011;23275;48.914;12.566;2022-12-29T08:01:15;6.55;;;2.97;;
37409;SDS011;23275;48.914;12.566;2022-12-29T08:03:40;5.97;;;2.90;;
37409;SDS011;23275;48.914;12.566;2022-12-29T08:06:08;5.25;;;2.72;;
37409;SDS011;23275;48.914;12.566;2022-12-29T08:08:35;7.00;;;2.95;;
37409;SDS011;23275;48.914;12.566;2022-12-29T08:11:00;5.78;;;2.30;;
37409;SDS011;23275;48.914;12.566;2022-12-29T08:13:26;6.25;;;2.65;;
37409;SDS011;23275;48.914;12.566;2022-12-29T08:15:51;4.80;;;2.40;;
37409;SDS011;23275;48.914;12.566;2022-12-29T08:18:17;5.60;;;2.50;;
37409;SDS011;23275;48.914;12.566;2022-12-29T08:20:42;5.32;;;2.40;;
37409;SDS011;23275;48.914;12.566;2022-12-29T08:23:08;4.22;;;2.30;;
37409;SDS011;23275;48.914;12.566;2022-12-29T08:25:33;5.50;;;2.38;;
37409;SDS011;23275;48.914;12.566;2022-12-29T08:27:59;5.57;;;2.50;;
37409;SDS011;23275;48.914;12.566;2022-12-29T08:30:24;4.80;;;2.58;;
37409;SDS011;23275;48.914;12.566;2022-12-29T08:32:50;4.97;;;2.50;;
37409;SDS011;23275;48.914;12.566;2022-12-29T08:35:15;5.47;;;2.58;;
37409;SDS011;23275;48.914;12.566;2022-12-29T08:37:41;4.57;;;2.47;;
37409;SDS011;23275;48.914;12.566;2022-12-29T08:40:07;4.00;;;1.95;;
37409;SDS011;23275;48.914;12.566;2022-12-29T08:42:33;5.20;;;2.20;;
37409;SDS011;23275;48.914;12.566;2022-12-29T08:44:59;5.72;;;2.42;;
37409;SDS011;23275;48.914;12.566;2022-12-29T08:47:25;5.30;;;2.10;;
37409;SDS011;23275;48.914;12.566;2022-12-29T08:49:51;7.20;;;2.95;;
37409;SDS011;23275;48.914;12.566;2022-12-29T08:52:16;5.75;;;3.20;;
37409;SDS011;23275;48.914;12.566;2022-12-29T08:54:42;6.82;;;2.63;;
37409;SDS011;23275;48.914;12.566;2022-12-29T08:57:08;4.95;;;2.33;;
37409;SDS011;23275;48.914;12.566;2022-12-29T08:59:33;6.30;;;2.20;;
37409;SDS011;23275;48.914;12.566;2022-12-29T09:01:59;5.60;;;2.50;;
37409;SDS011;23275;48.914;12.566;2022-12-29T09:04:26;6.22;;;2.60;;
37409;SDS011;23275;48.914;12.566;2022-12-29T09:06:52;4.68;;;2.47;;
37409;SDS011;23275;48.914;12.566;2022-12-29T09:09:18;3.67;;;1.95;;
37409;SDS011;23275;48.914;12.566;2022-12-29T09:11:44;3.88;;;1.88;;
37409;SDS011;23275;48.914;12.566;2022-12-29T09:14:09;3.40;;;1.80;;
37409;SDS011;23275;48.914;12.566;2022-12-29T09:16:35;4.85;;;2.03;;
37409;SDS011;23275;48.914;12.566;2022-12-29T09:19:01;5.68;;;2.60;;
37409;SDS011;23275;48.914;12.566;2022-12-29T09:21:27;4.68;;;2.15;;
37409;SDS011;23275;48.914;12.566;2022-12-29T09:23:53;4.28;;;2.00;;
37409;SDS011;23275;48.914;12.566;2022-12-29T09:26:19;4.05;;;1.70;;
37409;SDS011;23275;48.914;12.566;2022-12-29T09:28:44;6.32;;;2.35;;
37409;SDS011;23275;48.914;12.566;2022-12-29T09:31:10;4.47;;;2.00;;
37409;SDS011;23275;48.914;12.566;2022-12-29T09:33:36;4.90;;;2.20;;
37409;SDS011;23275;48.914;12.566;2022-12-29T09:36:02;3.78;;;1.88;;
37409;SDS011;23275;48.914;12.566;2022-12-29T09:38:28;4.03;;;2.20;;
37409;SDS011;23275;48.914;12.566;2022-12-29T09:40:55;4.70;;;2.30;;
37409;SDS011;23275;48.914;12.566;2022-12-29T09:46:26;4.60;;;2.00;;
37409;SDS011;23275;48.914;12.566;2022-12-29T09:49:04;4.63;;;2.00;;
37409;SDS011;23275;48.914;12.566;2022-12-29T09:51:39;4.40;;;2.33;;
37409;SDS011;23275;48.914;12.566;2022-12-29T09:54:28;4.03;;;2.25;;
37409;SDS011;23275;48.914;12.566;2022-12-29T09:57:20;4.85;;;2.50;;
37409;SDS011;23275;48.914;12.566;2022-12-29T09:59:50;4.20;;;2.20;;
37409;SDS011;23275;48.914;12.566;2022-12-29T10:04:59;6.28;;;2.22;;
37409;SDS011;23275;48.914;12.566;2022-12-29T10:07:45;3.95;;;1.95;;
37409;SDS011;23275;48.914;12.566;2022-12-29T10:10:41;5.00;;;1.75;;
37409;SDS011;23275;48.914;12.566;2022-12-29T10:13:21;5.05;;;2.05;;
37409;SDS011;23275;48.914;12.566;2022-12-29T10:16:25;3.67;;;1.73;;
37409;SDS011;23275;48.914;12.566;2022-12-29T10:19:05;3.72;;;1.60;;
37409;SDS011;23275;48.914;12.566;2022-12-29T10:24:34;3.42;;;1.90;;
37409;SDS011;23275;48.914;12.566;2022-12-29T10:27:03;4.45;;;1.80;;
37409;SDS011;23275;48.914;12.566;2022-12-29T10:29:33;3.88;;;1.88;;
37409;SDS011;23275;48.914;12.566;2022-12-29T10:34:36;5.18;;;2.10;;
37409;SDS011;23275;48.914;12.566;2022-12-29T10:37:49;5.57;;;2.25;;
37409;SDS011;23275;48.914;12.566;2022-12-29T10:39:55;5.28;;;2.03;;
37409;SDS011;23275;48.914;12.566;2022-12-29T10:42:26;4.38;;;2.03;;
37409;SDS011;23275;48.914;12.566;2022-12-29T10:44:56;5.47;;;2.05;;
37409;SDS011;23275;48.914;12.566;2022-12-29T10:47:28;3.95;;;2.10;;
37409;SDS011;23275;48.914;12.566;2022-12-29T10:49:58;3.70;;;1.95;;
37409;SDS011;23275;48.914;12.566;2022-12-29T10:52:25;4.82;;;2.22;;
37409;SDS011;23275;48.914;12.566;2022-12-29T11:00:01;4.40;;;2.27;;
37409;SDS011;23275;48.914;12.566;2022-12-29T11:02:46;5.68;;;2.28;;
37409;SDS011;23275;48.914;12.566;2022-12-29T11:05:40;4.93;;;2.25;;
37409;SDS011;23275;48.914;12.566;2022-12-29T11:08:14;4.72;;;2.70;;
37409;SDS011;23275;48.914;12.566;2022-12-29T11:10:44;6.13;;;2.80;;
37409;SDS011;23275;48.914;12.566;2022-12-29T11:13:18;4.60;;;2.25;;
37409;SDS011;23275;48.914;12.566;2022-12-29T11:15:50;7.07;;;2.55;;
37409;SDS011;23275;48.914;12.566;2022-12-29T11:18:20;4.32;;;2.50;;
37409;SDS011;23275;48.914;12.566;2022-12-29T11:20:52;5.13;;;2.10;;
37409;SDS011;23275;48.914;12.566;2022-12-29T11:23:33;7.50;;;2.53;;
37409;SDS011;23275;48.914;12.566;2022-12-29T11:26:19;7.68;;;2.38;;
37409;SDS011;23275;48.914;12.566;2022-12-29T11:31:39;4.65;;;2.38;;
37409;SDS011;23275;48.914;12.566;2022-12-29T11:36:59;10.20;;;2.33;;
37409;SDS011;23275;48.914;12.566;2022-12-29T11:43:11;6.38;;;2.45;;
37409;SDS011;23275;48.914;12.566;2022-12-29T11:47:56;6.50;;;2.95;;
37409;SDS011;23275;48.914;12.566;2022-12-29T11:50:25;4.45;;;2.33;;
37409;SDS011;23275;48.914;12.566;2022-12-29T11:55:30;5.10;;;2.30;;
37409;SDS011;23275;48.914;12.566;2022-12-29T11:57:58;5.18;;;2.38;;
37409;SDS011;23275;48.914;12.566;2022-12-29T12:00:27;6.30;;;2.50;;
37409;SDS011;23275;48.914;12.566;2022-12-29T12:05:49;5.38;;;2.25;;
37409;SDS011;23275;48.914;12.566;2022-12-29T12:13:59;8.52;;;2.60;;
37409;SDS011;23275;48.914;12.566;2022-12-29T12:16:36;5.10;;;2.30;;
37409;SDS011;23275;48.914;12.566;2022-12-29T12:19:12;5.93;;;2.50;;
37409;SDS011;23275;48.914;12.566;2022-12-29T12:21:46;3.92;;;2.10;;
37409;SDS011;23275;48.914;12.566;2022-12-29T12:29:33;8.80;;;2.65;;
37409;SDS011;23275;48.914;12.566;2022-12-29T12:32:02;5.35;;;2.30;;
37409;SDS011;23275;48.914;12.566;2022-12-29T12:34:39;4.97;;;2.28;;
37409;SDS011;23275;48.914;12.566;2022-12-29T12:40:06;4.05;;;2.55;;
37409;SDS011;23275;48.914;12.566;2022-12-29T12:42:41;5.93;;;2.42;;
37409;SDS011;23275;48.914;12.566;2022-12-29T12:45:38;4.60;;;2.22;;
37409;SDS011;23275;48.914;12.566;2022-12-29T12:48:23;5.43;;;2.55;;
37409;SDS011;23275;48.914;12.566;2022-12-29T12:51:17;3.63;;;2.10;;
37409;SDS011;23275;48.914;12.566;2022-12-29T12:56:43;5.85;;;2.35;;
37409;SDS011;23275;48.914;12.566;2022-12-29T12:59:50;5.15;;;2.55;;
37409;SDS011;23275;48.914;12.566;2022-12-29T13:08:41;5.47;;;2.47;;
37409;SDS011;23275;48.914;12.566;2022-12-29T13:17:03;5.68;;;2.33;;
37409;SDS011;23275;48.914;12.566;2022-12-29T13:20:02;7.78;;;1.88;;
37409;SDS011;23275;48.914;12.566;2022-12-29T13:28:28;4.53;;;2.55;;
37409;SDS011;23275;48.914;12.566;2022-12-29T13:31:07;6.22;;;2.42;;
37409;SDS011;23275;48.914;12.566;2022-12-29T13:34:05;4.03;;;2.03;;
37409;SDS011;23275;48.914;12.566;2022-12-29T13:37:01;5.28;;;2.63;;
37409;SDS011;23275;48.914;12.566;2022-12-29T13:39:37;6.15;;;2.50;;
37409;SDS011;23275;48.914;12.566;2022-12-29T13:42:07;7.07;;;2.42;;
37409;SDS011;23275;48.914;12.566;2022-12-29T13:47:25;5.22;;;2.47;;
37409;SDS011;23275;48.914;12.566;2022-12-29T13:50:01;4.20;;;2.25;;
37409;SDS011;23275;48.914;12.566;2022-12-29T13:58:03;4.88;;;2.40;;
37409;SDS011;23275;48.914;12.566;2022-12-29T14:00:53;10.30;;;2.70;;
37409;SDS011;23275;48.914;12.566;2022-12-29T14:06:15;4.93;;;2.13;;
37409;SDS011;23275;48.914;12.566;2022-12-29T14:08:44;5.40;;;2.50;;
37409;SDS011;23275;48.914;12.566;2022-12-29T14:11:10;4.93;;;2.35;;
37409;SDS011;23275;48.914;12.566;2022-12-29T14:13:39;7.35;;;3.38;;
37409;SDS011;23275;48.914;12.566;2022-12-29T14:16:08;5.53;;;3.15;;
37409;SDS011;23275;48.914;12.566;2022-12-29T14:19:03;5.75;;;3.13;;
37409;SDS011;23275;48.914;12.566;2022-12-29T14:21:34;7.13;;;2.53;;
37409;SDS011;23275;48.914;12.566;2022-12-29T14:26:52;5.95;;;3.05;;
37409;SDS011;23275;48.914;12.566;2022-12-29T14:31:49;5.50;;;2.70;;
37409;SDS011;23275;48.914;12.566;2022-12-29T14:36:53;6.40;;;3.20;;
37409;SDS011;23275;48.914;12.566;2022-12-29T14:39:45;8.60;;;3.20;;
37409;SDS011;23275;48.914;12.566;2022-12-29T14:42:14;9.13;;;3.20;;
37409;SDS011;23275;48.914;12.566;2022-12-29T14:44:55;6.68;;;3.22;;
37409;SDS011;23275;48.914;12.566;2022-12-29T14:47:34;7.28;;;3.03;;
37409;SDS011;23275;48.914;12.566;2022-12-29T14:53:05;7.07;;;3.45;;
37409;SDS011;23275;48.914;12.566;2022-12-29T14:55:40;6.30;;;3.13;;
37409;SDS011;23275;48.914;12.566;2022-12-29T14:58:20;10.10;;;3.45;;
37409;SDS011;23275;48.914;12.566;2022-12-29T15:00:53;8.75;;;4.03;;
37409;SDS011;23275;48.914;12.566;2022-12-29T15:03:32;7.95;;;3.63;;
37409;SDS011;23275;48.914;12.566;2022-12-29T15:06:08;8.38;;;3.55;;
37409;SDS011;23275;48.914;12.566;2022-12-29T15:08:39;8.80;;;3.65;;
37409;SDS011;23275;48.914;12.566;2022-12-29T15:11:15;7.03;;;3.70;;
37409;SDS011;23275;48.914;12.566;2022-12-29T15:13:44;9.20;;;4.13;;
37409;SDS011;23275;48.914;12.566;2022-12-29T15:18:54;12.13;;;3.92;;
37409;SDS011;23275;48.914;12.566;2022-12-29T15:21:30;7.10;;;3.80;;
37409;SDS011;23275;48.914;12.566;2022-12-29T15:23:58;7.88;;;3.60;;
37409;SDS011;23275;48.914;12.566;2022-12-29T15:26:34;6.40;;;3.80;;
37409;SDS011;23275;48.914;12.566;2022-12-29T15:29:05;6.70;;;3.45;;
37409;SDS011;23275;48.914;12.566;2022-12-29T15:31:50;7.28;;;3.55;;
37409;SDS011;23275;48.914;12.566;2022-12-29T15:34:16;10.55;;;3.80;;
37409;SDS011;23275;48.914;12.566;2022-12-29T15:36:46;9.52;;;3.90;;
37409;SDS011;23275;48.914;12.566;2022-12-29T15:39:19;6.90;;;3.53;;
37409;SDS011;23275;48.914;12.566;2022-12-29T15:41:50;6.30;;;3.23;;
37409;SDS011;23275;48.914;12.566;2022-12-29T15:44:38;5.80;;;2.90;;
37409;SDS011;23275;48.914;12.566;2022-12-29T15:47:09;7.72;;;3.50;;
37409;SDS011;23275;48.914;12.566;2022-12-29T15:49:41;8.32;;;3.70;;
37409;SDS011;23275;48.914;12.566;2022-12-29T15:52:08;7.65;;;3.70;;
37409;SDS011;23275;48.914;12.566;2022-12-29T15:54:34;7.50;;;3.33;;
37409;SDS011;23275;48.914;12.566;2022-12-29T15:57:01;6.40;;;3.40;;
37409;SDS011;23275;48.914;12.566;2022-12-29T15:59:31;6.63;;;3.22;;
37409;SDS011;23275;48.914;12.566;2022-12-29T16:01:58;7.38;;;3.70;;
37409;SDS011;23275;48.914;12.566;2022-12-29T16:04:27;7.82;;;3.35;;
37409;SDS011;23275;48.914;12.566;2022-12-29T16:07:02;7.68;;;3.45;;
37409;SDS011;23275;48.914;12.566;2022-12-29T16:09:36;8.80;;;3.25;;
37409;SDS011;23275;48.914;12.566;2022-12-29T16:12:15;7.43;;;3.42;;
37409;SDS011;23275;48.914;12.566;2022-12-29T16:14:47;6.32;;;3.10;;
37409;SDS011;23275;48.914;12.566;2022-12-29T16:17:17;5.72;;;3.40;;
37409;SDS011;23275;48.914;12.566;2022-12-29T16:19:49;8.60;;;3.65;;
37409;SDS011;23275;48.914;12.566;2022-12-29T16:24:59;6.22;;;3.33;;
37409;SDS011;23275;48.914;12.566;2022-12-29T16:29:55;7.20;;;3.35;;
37409;SDS011;23275;48.914;12.566;2022-12-29T16:32:23;6.30;;;3.30;;
37409;SDS011;23275;48.914;12.566;2022-12-29T16:34:49;5.60;;;3.20;;
37409;SDS011;23275;48.914;12.566;2022-12-29T16:37:31;8.18;;;3.13;;
37409;SDS011;23275;48.914;12.566;2022-12-29T16:42:46;9.18;;;3.80;;
37409;SDS011;23275;48.914;12.566;2022-12-29T16:50:32;6.15;;;3.45;;
37409;SDS011;23275;48.914;12.566;2022-12-29T16:52:59;5.18;;;2.95;;
37409;SDS011;23275;48.914;12.566;2022-12-29T16:55:26;8.02;;;3.22;;
37409;SDS011;23275;48.914;12.566;2022-12-29T16:57:52;9.73;;;3.83;;
37409;SDS011;23275;48.914;12.566;2022-12-29T17:00:25;8.25;;;3.92;;
37409;SDS011;23275;48.914;12.566;2022-12-29T17:02:52;5.43;;;3.17;;
37409;SDS011;23275;48.914;12.566;2022-12-29T17:05:20;6.60;;;3.00;;
37409;SDS011;23275;48.914;12.566;2022-12-29T17:07:47;8.05;;;3.35;;
37409;SDS011;23275;48.914;12.566;2022-12-29T17:10:13;7.13;;;3.25;;